createdAt,value
2023-01-23T00:00:59.135Z,28.55
2023-01-23T00:08:36.450Z,26.65
2023-01-23T00:16:12.381Z,23.70
2023-01-23T00:23:49.325Z,24.90
2023-01-23T00:31:25.706Z,25.42
2023-01-23T00:39:01.583Z,25.98
2023-01-23T00:46:35.524Z,24.55
2023-01-23T00:54:11.017Z,25.98
2023-01-23T01:01:45.274Z,27.75
2023-01-23T01:09:20.504Z,25.05
2023-01-23T01:16:54.482Z,23.58
2023-01-23T01:24:29.660Z,23.92
2023-01-23T01:32:03.518Z,29.48
2023-01-23T01:39:38.737Z,23.25
2023-01-23T01:47:16.031Z,29.27
2023-01-23T01:54:54.883Z,24.20
2023-01-23T02:02:32.913Z,27.63
2023-01-23T02:10:11.070Z,26.23
2023-01-23T02:17:46.348Z,25.50
2023-01-23T02:25:31.587Z,27.90
2023-01-23T02:33:11.229Z,25.77
2023-01-23T02:40:45.034Z,25.70
2023-01-23T02:48:20.222Z,30.27
2023-01-23T02:55:54.040Z,26.20
2023-01-23T03:03:30.591Z,30.50
2023-01-23T03:11:05.680Z,30.48
2023-01-23T03:18:53.558Z,30.08
2023-01-23T03:26:28.365Z,30.92
2023-01-23T03:34:03.872Z,31.40
2023-01-23T03:41:39.168Z,27.33
2023-01-23T03:49:14.411Z,35.92
2023-01-23T03:56:48.334Z,35.55
2023-01-23T04:04:23.476Z,39.20
2023-01-23T04:11:58.811Z,33.17
2023-01-23T04:19:34.270Z,35.58
2023-01-23T04:27:08.041Z,36.42
2023-01-23T04:34:43.297Z,33.40
2023-01-23T04:42:17.044Z,36.92
2023-01-23T04:49:52.283Z,33.97
2023-01-23T04:57:26.099Z,34.13
2023-01-23T05:05:01.260Z,31.60
2023-01-23T05:12:35.592Z,36.08
2023-01-23T05:27:45.518Z,35.17
2023-01-23T05:35:20.748Z,34.17
2023-01-23T05:42:54.612Z,31.90
2023-01-23T05:50:29.785Z,31.83
2023-01-23T05:58:03.592Z,32.00
2023-01-23T06:05:38.719Z,31.73
2023-01-23T06:13:13.724Z,30.33
2023-01-23T06:20:48.946Z,33.20
2023-01-23T06:28:22.746Z,36.10
2023-01-23T06:36:00.367Z,33.20
2023-01-23T06:43:34.137Z,35.90
2023-01-23T06:51:09.752Z,31.83
2023-01-23T06:58:46.133Z,34.45
2023-01-23T07:06:21.356Z,36.78
2023-01-23T07:13:56.452Z,35.45
2023-01-23T07:21:31.763Z,35.42
2023-01-23T07:29:08.990Z,36.70
2023-01-23T07:36:44.176Z,33.33
2023-01-23T07:44:20.607Z,33.65
2023-01-23T07:51:55.841Z,38.67
2023-01-23T07:59:30.921Z,33.08
2023-01-23T08:07:06.796Z,30.73
2023-01-23T08:14:41.691Z,31.92
2023-01-23T08:22:16.890Z,33.58
2023-01-23T08:29:50.715Z,31.45
2023-01-23T08:37:26.060Z,37.80
2023-01-23T08:44:59.933Z,38.80
2023-01-23T08:52:35.384Z,36.60
2023-01-23T09:00:11.569Z,35.30
2023-01-23T09:07:46.813Z,30.35
2023-01-23T09:15:21.791Z,35.58
2023-01-23T09:22:56.978Z,33.85
2023-01-23T09:30:30.903Z,36.95
2023-01-23T09:38:07.871Z,36.17
2023-01-23T09:45:45.301Z,34.92
2023-01-23T09:53:24.412Z,35.95
2023-01-23T10:00:59.282Z,35.33
2023-01-23T10:08:45.060Z,32.92
2023-01-23T10:16:49.172Z,40.92
2023-01-23T10:24:40.892Z,37.10
2023-01-23T10:32:24.427Z,31.45
2023-01-23T10:40:04.095Z,37.65
2023-01-23T10:47:44.053Z,39.28
2023-01-23T10:55:31.573Z,33.85
2023-01-23T11:03:28.966Z,32.92
2023-01-23T11:11:25.220Z,31.17
2023-01-23T11:19:13.563Z,27.98
2023-01-23T11:26:59.008Z,32.80
2023-01-23T11:34:39.525Z,34.53
2023-01-23T11:42:18.471Z,30.58
2023-01-23T11:50:12.981Z,36.40
2023-01-23T11:58:02.647Z,33.93
2023-01-23T12:06:19.229Z,34.95
2023-01-23T12:14:01.380Z,36.55
2023-01-23T12:21:47.465Z,30.45
2023-01-23T12:29:46.072Z,29.10
2023-01-23T12:37:40.722Z,38.65
2023-01-23T12:45:24.037Z,35.03
2023-01-23T12:53:04.603Z,33.78
2023-01-23T13:00:50.660Z,31.65
2023-01-23T13:08:32.384Z,30.50
2023-01-23T13:16:14.832Z,31.45
2023-01-23T13:24:09.233Z,26.65
2023-01-23T13:31:47.773Z,24.17
2023-01-23T13:39:29.450Z,24.20
2023-01-23T14:27:29.514Z,19.27
2023-01-23T14:35:17.688Z,19.20
2023-01-23T14:42:57.851Z,22.55
2023-01-23T14:50:33.733Z,21.35
2023-01-23T14:58:08.792Z,19.08
2023-01-23T15:05:59.530Z,15.20
2023-01-23T15:13:41.131Z,16.27
2023-01-23T15:21:26.764Z,17.55
2023-01-23T15:29:03.922Z,16.60
2023-01-23T15:36:39.572Z,17.08
2023-01-23T15:44:15.503Z,18.65
2023-01-23T15:51:50.951Z,18.02
2023-01-23T15:59:24.822Z,16.80
2023-01-23T16:07:06.114Z,15.30
2023-01-23T16:14:40.551Z,20.50
2023-01-23T16:29:53.150Z,17.55
2023-01-23T16:37:29.975Z,15.75
2023-01-23T16:45:04.118Z,15.13
2023-01-23T16:52:39.776Z,18.15
2023-01-23T17:00:24.906Z,16.98
2023-01-23T17:08:17.359Z,19.02
2023-01-23T17:15:54.119Z,18.50
2023-01-23T17:23:29.385Z,15.13
2023-01-23T17:31:05.166Z,19.83
2023-01-23T17:38:42.233Z,18.52
2023-01-23T17:46:23.007Z,17.02
2023-01-23T17:53:58.963Z,15.45
2023-01-23T18:01:32.826Z,18.83
2023-01-23T18:09:08.226Z,15.23
2023-01-23T18:16:45.280Z,16.05
2023-01-23T18:24:28.344Z,17.98
2023-01-23T18:32:24.493Z,17.98
2023-01-23T18:40:10.539Z,14.98
2023-01-23T18:47:44.539Z,18.85
2023-01-23T18:55:30.041Z,21.75
2023-01-23T19:03:13.826Z,16.13
2023-01-23T19:10:50.461Z,19.63
2023-01-23T19:18:46.711Z,18.10
2023-01-23T19:26:23.132Z,19.77
2023-01-23T19:33:57.943Z,17.38
2023-01-23T19:41:41.363Z,17.60
2023-01-23T19:49:15.320Z,17.42
2023-01-23T19:56:50.750Z,19.13
2023-01-23T20:04:25.312Z,18.85
2023-01-23T20:12:00.513Z,13.80
2023-01-23T20:19:34.310Z,16.83
2023-01-23T20:27:09.470Z,17.43
2023-01-23T20:34:43.667Z,15.40
2023-01-23T20:42:18.822Z,18.90
2023-01-23T20:49:52.737Z,15.90
2023-01-23T20:57:48.042Z,16.20
2023-01-23T21:05:22.144Z,18.50
2023-01-23T21:12:57.821Z,16.17
2023-01-23T21:20:31.733Z,17.35
2023-01-23T21:28:07.083Z,15.88
2023-01-23T21:35:41.161Z,12.02
2023-01-23T21:43:16.494Z,16.45
2023-01-23T21:50:50.322Z,14.75
2023-01-23T21:58:25.640Z,12.93
2023-01-23T22:05:59.645Z,14.65
2023-01-23T22:13:35.644Z,15.55
2023-01-23T22:21:10.087Z,14.98
2023-01-23T22:36:22.956Z,19.38
2023-01-23T22:43:59.518Z,17.77
2023-01-23T22:51:33.564Z,18.85
2023-01-23T22:59:08.704Z,22.45
2023-01-23T23:06:42.527Z,19.45
2023-01-23T23:14:17.699Z,20.00
2023-01-23T23:21:51.569Z,23.33
2023-01-23T23:29:26.837Z,21.25
2023-01-23T23:37:01.666Z,18.23
2023-01-23T23:44:36.832Z,20.13
2023-01-23T23:52:10.610Z,14.98
2023-01-23T23:59:45.893Z,19.47
